Newark Liberty International Airport
KEWR : now visible

Airfield :











YOU CAN JOIN US ON...

 
LOGIN :

Register | Disclaimer

   EN    FR    IT 

 









Legend :    VFR   Marginal VFR   IFR   Intensive IFR   Very Intensive IFR
Visi :
Ceiling :
>= 8 km
>= 3000ft
5 to 8 km
1000 to 3000 ft
1500m to 5 km
500 to 1000 ft
800 to 1500m
200 to 500 ft
< 800m
< 200 ft
Symbols :   Thunderstorms  Fog  Heavy snow  Heavy precipitations  Wind > 20 kt






- Airport Elevation : 18 ft
- IATA code : EWR


KEWR - Newark Liberty International

CURRENT METAR :
  • 141951Z 15007KT 3/4SM R04R/P6000FT BR OVC003 12/12 A2917 RMK AO2 SFC VIS 1 1/2 RAE18DZB18E33 SLP879 CIG 002V004 P0000 T01220122 $

EXPIRED METARs :
  • 141851Z 08004KT 3/4SM R04R/4000V6000FT -RA BR OVC003 12/12 A2922 RMK AO2 RAE1759B51DZB1759E51 PRESFR SLP894 CIG 002V004 P0001 T01170117 $
  • 141829Z VRB03KT 3/4SM R04R/4500VP6000FT -DZ BR OVC003 12/12 A2925 RMK AO2 RAE1759DZB1759 CIG 002V004 P0001 T01170117 $
  • 141751Z 05004KT 1SM R04R/4000VP6000FT -RA BR OVC003 12/11 A2927 RMK AO2 RAB48 SLP910 CIG 002V004 P0000 60000 T01170111 10117 20094 58060 $

TAF KEWR
Valid from the 14 at 18:00 until the 16 at 00:00 UTC


141726Z 1418/1524 VRB05KT 2SM -DZ BR OVC005
TEMPO 1418/1420 1SM BR BKN003
FM142000 17010G18KT 3SM -DZ BR BKN008 OVC012
FM142300 23018G28KT P6SM BKN015 OVC025
FM150500 26020G32KT P6SM BKN035
FM151100 27022G35KT P6SM BKN045
FM152000 28021G33KT P6SM SCT050 SCT250



MET'MAP, your aeronautical weather chart ! - Copyright ORBIFLY December 2007 - Disclaimer

ORBIFLY MET'MAP TEAM :

Programming & Development : Alexandra Zaïnal
Concept & original design : Baudouin d'Aumeries
Assistance for programming : Marc-Olivier Méhu
Technical & hardware support : Manuel Goepfert

Contact : metmap@orbifly.com




SOURCES & CREDITS :

   NOAA       Earth
Advisory